Time;durP1;ratioP1;P1;durP2;ratioP2;P2;SDS_P1;SDS_P2;PMS_P1;PMS_P2;Temp;Humidity;BMP_temperature;BMP_pressure;BME280_temperature;BME280_humidity;BME280_pressure;Samples;Min_cycle;Max_cycle;Signal;HPM_P1;HPM_P2
2022/01/19 00:01:22;;;;;;;54.65;19.92;;;4.90;99.90;;;;;;4956919;28;20043;-78
2022/01/19 00:03:47;;;;;;;56.88;20.25;;;5.00;99.90;;;;;;4939968;29;20086;-78
2022/01/19 00:06:13;;;;;;;58.90;19.67;;;4.90;99.90;;;;;;4939223;29;20043;-77
2022/01/19 00:08:39;;;;;;;59.80;20.17;;;5.00;99.90;;;;;;4939446;29;20387;-77
2022/01/19 00:11:05;;;;;;;61.03;19.30;;;5.00;99.90;;;;;;4955334;29;20042;-77
2022/01/19 00:13:31;;;;;;;60.20;18.95;;;5.00;99.90;;;;;;4955376;29;20130;-77
2022/01/19 00:15:56;;;;;;;52.25;17.58;;;5.00;99.90;;;;;;4938825;29;20050;-78
2022/01/19 00:18:23;;;;;;;56.60;18.48;;;4.90;99.90;;;;;;4938699;29;20043;-77
2022/01/19 00:20:50;;;;;;;57.20;17.05;;;4.90;99.90;;;;;;4954602;29;20170;-77
2022/01/19 00:23:16;;;;;;;55.85;16.60;;;4.80;99.90;;;;;;4955352;29;20047;-77
2022/01/19 00:25:43;;;;;;;60.90;19.35;;;4.80;99.90;;;;;;4954842;29;20482;-77
2022/01/19 00:28:09;;;;;;;54.97;18.27;;;4.60;99.90;;;;;;4955108;29;20094;-77
2022/01/19 00:30:34;;;;;;;61.00;19.38;;;4.60;99.90;;;;;;4955097;29;20398;-77
2022/01/19 00:33:00;;;;;;;59.38;19.02;;;4.70;99.90;;;;;;4938387;29;20106;-77
2022/01/19 00:35:26;;;;;;;48.33;17.20;;;4.60;99.90;;;;;;4954611;29;20240;-77
2022/01/19 00:37:51;;;;;;;54.42;16.60;;;4.70;99.90;;;;;;4956220;28;20486;-77
2022/01/19 00:40:20;;;;;;;61.10;17.42;;;4.70;99.90;;;;;;4938784;29;20035;-77
2022/01/19 00:42:46;;;;;;;62.58;16.40;;;4.70;99.90;;;;;;4955925;28;20035;-78
2022/01/19 00:45:14;;;;;;;53.33;17.42;;;4.70;99.90;;;;;;4955860;28;20039;-78
2022/01/19 00:47:41;;;;;;;57.25;17.73;;;4.70;99.90;;;;;;4956102;28;20039;-78
2022/01/19 00:50:09;;;;;;;58.83;16.13;;;4.70;99.90;;;;;;4938587;29;20045;-78
2022/01/19 00:52:37;;;;;;;57.95;18.83;;;4.70;99.90;;;;;;4953952;29;20122;-78
2022/01/19 00:55:05;;;;;;;64.20;17.90;;;4.60;99.90;;;;;;4955634;28;20039;-78
2022/01/19 00:57:31;;;;;;;46.92;17.05;;;4.70;99.90;;;;;;4955773;28;20557;-78
2022/01/19 00:59:56;;;;;;;64.75;18.58;;;4.70;99.90;;;;;;4955428;28;20051;-78
2022/01/19 01:02:22;;;;;;;56.28;18.00;;;4.70;99.90;;;;;;4955110;28;20054;-78
2022/01/19 01:04:48;;;;;;;62.65;18.48;;;4.70;99.90;;;;;;4955606;28;20126;-78
2022/01/19 01:07:13;;;;;;;52.30;17.90;;;4.70;99.90;;;;;;4954613;28;20044;-78
2022/01/19 01:09:39;;;;;;;47.67;16.05;;;4.70;99.90;;;;;;4954005;29;20039;-78
2022/01/19 01:12:20;;;;;;;55.20;18.17;;;4.70;99.90;;;;;;4938578;29;20088;-78
2022/01/19 01:18:18;;;;;;;47.95;16.00;;;4.70;99.90;;;;;;4955624;29;20181;-78
2022/01/19 01:20:18;;;;;;;51.63;17.35;;;4.60;99.90;;;;;;4953526;29;20678;-78
2022/01/19 01:22:44;;;;;;;60.47;16.70;;;4.60;99.90;;;;;;4954374;29;20089;-78
2022/01/19 01:25:09;;;;;;;54.30;16.30;;;4.60;99.90;;;;;;4937944;29;20043;-78
2022/01/19 01:27:35;;;;;;;57.55;16.98;;;4.60;99.90;;;;;;4955378;28;20050;-78
2022/01/19 01:30:01;;;;;;;52.90;16.70;;;4.60;99.90;;;;;;4955331;28;20043;-78
2022/01/19 01:32:26;;;;;;;52.45;16.92;;;4.50;99.90;;;;;;4954291;29;20403;-78
2022/01/19 01:34:53;;;;;;;56.80;16.50;;;4.50;99.90;;;;;;4938439;29;20125;-78
2022/01/19 01:37:19;;;;;;;52.15;16.88;;;4.40;99.90;;;;;;4953842;29;20054;-78
2022/01/19 01:39:45;;;;;;;64.15;18.40;;;4.50;99.90;;;;;;4955785;28;20075;-78
2022/01/19 01:42:17;;;;;;;51.47;17.50;;;4.50;99.90;;;;;;4954089;29;20047;-77
2022/01/19 01:44:47;;;;;;;58.22;18.08;;;4.40;99.90;;;;;;4937902;29;20051;-78
2022/01/19 01:47:15;;;;;;;63.92;17.15;;;4.40;99.90;;;;;;4954910;28;20039;-78
2022/01/19 01:53:25;;;;;;;60.78;18.55;;;4.40;99.90;;;;;;4954019;29;20043;-78
2022/01/19 01:55:17;;;;;;;62.22;17.90;;;4.40;99.90;;;;;;4954632;29;20054;-78
2022/01/19 01:57:42;;;;;;;51.28;16.88;;;4.40;99.90;;;;;;4955099;28;20039;-78
2022/01/19 02:00:11;;;;;;;63.47;19.75;;;4.40;99.90;;;;;;4955079;28;20474;-78
2022/01/19 02:02:37;;;;;;;61.60;20.65;;;4.30;99.90;;;;;;4955038;28;20073;-78
2022/01/19 02:05:03;;;;;;;63.33;18.88;;;4.30;99.90;;;;;;4954361;28;20063;-78
2022/01/19 02:08:00;;;;;;;57.97;17.80;;;4.30;99.90;;;;;;4954002;29;20110;-78
2022/01/19 02:10:54;;;;;;;61.22;18.75;;;4.30;99.90;;;;;;4953288;28;20375;-78
2022/01/19 02:24:17;;;;;;;46.10;18.58;;;4.20;99.90;;;;;;4956661;29;20055;-77
2022/01/19 02:40:12;;;;;;;61.00;18.15;;;4.10;99.90;;;;;;4954359;28;20051;-78
2022/01/19 02:42:52;;;;;;;50.63;16.58;;;4.20;99.90;;;;;;4954293;28;20047;-78
2022/01/19 02:50:30;;;;;;;64.65;19.83;;;4.10;99.90;;;;;;4953142;29;20130;-78
2022/01/19 02:52:56;;;;;;;65.43;17.50;;;4.10;99.90;;;;;;4954761;28;20043;-78
2022/01/19 02:55:22;;;;;;;51.05;17.65;;;4.10;99.90;;;;;;4954537;28;20884;-78
2022/01/19 02:57:48;;;;;;;59.83;18.25;;;4.00;99.90;;;;;;4954393;28;20039;-78
2022/01/19 03:08:47;;;;;;;47.40;18.25;;;4.10;99.90;;;;;;4953826;29;20106;-78
2022/01/19 03:11:15;;;;;;;50.42;14.98;;;4.10;99.90;;;;;;4952755;29;20094;-78
2022/01/19 03:13:41;;;;;;;46.92;15.15;;;4.10;99.90;;;;;;4953916;28;20035;-78
2022/01/19 03:16:07;;;;;;;67.47;18.08;;;4.00;99.90;;;;;;4953575;28;20449;-78
2022/01/19 03:18:32;;;;;;;114.18;21.15;;;4.10;99.90;;;;;;4952381;29;20051;-78
2022/01/19 03:20:58;;;;;;;94.00;20.45;;;4.00;99.90;;;;;;4936773;29;20051;-78
2022/01/19 03:23:24;;;;;;;60.95;18.13;;;4.00;99.90;;;;;;4954191;28;20054;-78
2022/01/19 03:25:51;;;;;;;53.28;17.42;;;4.00;99.90;;;;;;4956119;29;20058;-78
2022/01/19 03:28:17;;;;;;;59.05;17.33;;;4.00;99.90;;;;;;4956409;29;20043;-78
2022/01/19 03:30:44;;;;;;;49.63;17.33;;;4.00;99.90;;;;;;4940755;29;20036;-78
2022/01/19 03:33:10;;;;;;;51.25;18.38;;;4.00;99.90;;;;;;4940539;29;20035;-77
2022/01/19 03:35:38;;;;;;;69.63;19.73;;;3.90;99.90;;;;;;4956067;29;20039;-78
2022/01/19 03:38:05;;;;;;;52.55;17.75;;;3.90;99.90;;;;;;4940318;29;20122;-78
2022/01/19 03:40:30;;;;;;;55.45;17.70;;;3.90;99.90;;;;;;4940161;29;20039;-78
2022/01/19 03:42:56;;;;;;;58.22;17.95;;;3.90;99.90;;;;;;4940106;29;20047;-77
2022/01/19 03:45:21;;;;;;;90.00;20.75;;;3.90;99.90;;;;;;4940062;29;20406;-78
2022/01/19 03:47:55;;;;;;;63.85;17.00;;;3.90;99.90;;;;;;4957322;28;20723;-77
2022/01/19 03:50:20;;;;;;;83.57;18.90;;;3.80;99.90;;;;;;4959096;29;20438;-80
2022/01/19 03:52:46;;;;;;;39.22;15.68;;;3.80;99.90;;;;;;4962714;28;20043;-81
2022/01/19 03:55:11;;;;;;;53.58;16.75;;;3.70;99.90;;;;;;4961954;29;20090;-81
2022/01/19 03:57:38;;;;;;;65.63;18.60;;;3.70;99.90;;;;;;4962109;28;20055;-81
2022/01/19 04:00:06;;;;;;;51.20;17.63;;;3.70;99.90;;;;;;4960344;29;20406;-81
2022/01/19 04:02:33;;;;;;;53.15;17.63;;;3.60;99.90;;;;;;4959355;29;20098;-81
2022/01/19 04:05:08;;;;;;;47.88;17.25;;;3.50;99.90;;;;;;4959509;29;20035;-81
2022/01/19 04:07:34;;;;;;;45.35;16.00;;;3.50;99.90;;;;;;4960001;29;20057;-80
2022/01/19 04:09:59;;;;;;;45.67;16.80;;;3.40;99.90;;;;;;4960518;28;20035;-80
2022/01/19 04:15:10;;;;;;;40.55;14.80;;;3.40;99.90;;;;;;4959343;28;20043;-80
2022/01/19 04:17:41;;;;;;;47.90;16.75;;;3.30;99.90;;;;;;4958409;29;20059;-80
2022/01/19 04:20:07;;;;;;;45.78;17.25;;;3.30;99.90;;;;;;4959251;28;20047;-80
2022/01/19 04:22:32;;;;;;;46.17;15.65;;;3.20;99.90;;;;;;4958360;29;20537;-80
2022/01/19 04:24:58;;;;;;;45.38;15.38;;;3.20;99.90;;;;;;4959530;28;20047;-80
2022/01/19 04:30:04;;;;;;;36.45;13.07;;;3.20;99.90;;;;;;4958118;29;20054;-80
2022/01/19 04:33:07;;;;;;;34.08;12.73;;;3.10;99.90;;;;;;4959504;28;20090;-80
2022/01/19 04:35:25;;;;;;;33.05;12.02;;;3.00;99.90;;;;;;4954487;28;20062;-81
2022/01/19 04:46:26;;;;;;;50.08;16.38;;;3.00;99.90;;;;;;4957587;29;20098;-80
2022/01/19 05:02:49;;;;;;;39.15;15.35;;;2.90;99.90;;;;;;4958497;29;20047;-80
2022/01/19 05:05:23;;;;;;;40.55;14.32;;;2.90;99.90;;;;;;4957443;29;20058;-80
2022/01/19 05:15:43;;;;;;;36.80;13.85;;;2.70;99.90;;;;;;4957902;29;20059;-80
2022/01/19 05:18:08;;;;;;;35.17;14.40;;;2.70;99.90;;;;;;4958290;29;20051;-81
2022/01/19 05:20:34;;;;;;;45.50;15.55;;;2.70;99.90;;;;;;4957702;29;20079;-81
2022/01/19 05:23:00;;;;;;;44.38;16.60;;;2.70;99.90;;;;;;4942147;29;20070;-80
2022/01/19 05:25:26;;;;;;;43.35;15.63;;;2.70;99.90;;;;;;4941379;29;20555;-80
2022/01/19 05:27:51;;;;;;;42.97;16.80;;;2.70;99.90;;;;;;4942175;29;20057;-80
2022/01/19 05:30:18;;;;;;;49.20;15.80;;;2.70;99.90;;;;;;4958228;29;20485;-80
2022/01/19 05:32:46;;;;;;;43.00;15.45;;;2.70;99.90;;;;;;4958290;29;20039;-81
2022/01/19 05:35:12;;;;;;;49.45;15.65;;;2.70;99.90;;;;;;4958441;29;20429;-81
2022/01/19 05:37:38;;;;;;;42.80;15.82;;;2.70;99.90;;;;;;4941903;29;20039;-80
2022/01/19 05:40:09;;;;;;;38.42;16.52;;;2.70;99.90;;;;;;4958314;29;20605;-81
2022/01/19 05:42:35;;;;;;;37.25;14.52;;;2.70;99.90;;;;;;4958819;29;20405;-81
2022/01/19 05:45:01;;;;;;;58.10;16.40;;;2.70;99.90;;;;;;4956703;28;20035;-83
2022/01/19 05:47:27;;;;;;;49.63;17.65;;;2.70;99.90;;;;;;4953424;29;20102;-83
2022/01/19 05:49:52;;;;;;;45.67;17.05;;;2.70;99.90;;;;;;4937950;29;20043;-84
2022/01/19 05:52:19;;;;;;;42.20;15.32;;;2.70;99.90;;;;;;4954236;29;20043;-82
2022/01/19 05:54:45;;;;;;;40.60;14.38;;;2.70;99.90;;;;;;4953863;29;20059;-83
2022/01/19 05:57:11;;;;;;;42.05;16.75;;;2.60;99.90;;;;;;4937439;29;20043;-84
2022/01/19 05:59:37;;;;;;;38.83;16.33;;;2.60;99.90;;;;;;4937579;29;20118;-83
2022/01/19 06:02:03;;;;;;;44.58;13.82;;;2.60;99.90;;;;;;4953738;29;20498;-84
2022/01/19 06:04:28;;;;;;;40.08;14.35;;;2.70;99.90;;;;;;4937335;29;20044;-83
2022/01/19 06:06:56;;;;;;;35.47;13.25;;;2.60;99.90;;;;;;4953248;29;20042;-83
2022/01/19 06:09:36;;;;;;;41.42;13.45;;;2.60;99.90;;;;;;4937835;29;20047;-84
2022/01/19 06:12:04;;;;;;;54.55;20.75;;;2.60;99.90;;;;;;4937935;29;20039;-84
2022/01/19 06:14:31;;;;;;;49.28;16.00;;;2.70;99.90;;;;;;4937504;29;20046;-83
2022/01/19 06:16:57;;;;;;;47.92;16.85;;;2.70;99.90;;;;;;4937424;29;20050;-82
2022/01/19 06:19:23;;;;;;;48.85;15.82;;;2.70;99.90;;;;;;4937784;29;20039;-83
2022/01/19 06:21:49;;;;;;;42.42;15.63;;;2.80;99.90;;;;;;4937264;29;20091;-83
2022/01/19 06:24:14;;;;;;;43.85;15.82;;;2.80;99.90;;;;;;4937230;29;20505;-83
2022/01/19 06:26:40;;;;;;;50.80;16.92;;;2.80;99.90;;;;;;4952768;29;20039;-84
2022/01/19 06:29:05;;;;;;;40.40;16.90;;;2.80;99.90;;;;;;4953606;29;20046;-83
2022/01/19 06:31:31;;;;;;;42.17;15.23;;;2.80;99.90;;;;;;4953745;29;20081;-83
2022/01/19 06:33:57;;;;;;;42.92;17.05;;;2.90;99.90;;;;;;4936970;29;20130;-83
2022/01/19 06:36:23;;;;;;;46.38;17.23;;;2.90;99.90;;;;;;4952723;29;20531;-83
2022/01/19 06:38:48;;;;;;;48.83;16.13;;;2.90;99.90;;;;;;4952807;29;20109;-83
2022/01/19 06:41:14;;;;;;;57.00;19.58;;;2.90;99.90;;;;;;4937470;29;20039;-82
2022/01/19 06:43:40;;;;;;;49.40;17.88;;;3.00;99.90;;;;;;4955400;29;20043;-83
2022/01/19 06:46:05;;;;;;;52.50;18.13;;;3.00;99.90;;;;;;4954367;28;20555;-83
2022/01/19 06:48:31;;;;;;;49.03;17.98;;;3.00;99.90;;;;;;4940883;29;20039;-81
2022/01/19 06:50:57;;;;;;;47.08;17.33;;;3.00;99.90;;;;;;4957180;29;20051;-81
2022/01/19 06:53:22;;;;;;;50.08;17.33;;;3.10;99.90;;;;;;4957542;28;20047;-81
2022/01/19 06:55:48;;;;;;;53.97;17.48;;;3.10;99.90;;;;;;4958402;29;20409;-80
2022/01/19 06:58:13;;;;;;;43.00;16.27;;;3.10;99.90;;;;;;4957990;28;20327;-81
2022/01/19 07:00:40;;;;;;;48.50;17.17;;;3.20;99.90;;;;;;4955502;29;20066;-81
2022/01/19 07:03:05;;;;;;;41.80;17.33;;;3.20;99.90;;;;;;4940636;29;20047;-82
2022/01/19 07:05:31;;;;;;;35.53;15.57;;;3.20;99.90;;;;;;4955556;28;20051;-82
2022/01/19 07:07:57;;;;;;;39.55;15.45;;;3.20;99.90;;;;;;4954583;29;20043;-82
2022/01/19 07:10:23;;;;;;;39.92;16.90;;;3.20;99.90;;;;;;4939403;29;20035;-80
2022/01/19 07:12:50;;;;;;;40.28;15.90;;;3.20;99.90;;;;;;4940716;29;20520;-81
2022/01/19 07:15:16;;;;;;;43.08;16.40;;;3.20;99.90;;;;;;4958596;29;20051;-82
2022/01/19 07:17:42;;;;;;;35.20;14.85;;;3.20;99.90;;;;;;4940581;29;20047;-81
2022/01/19 07:20:08;;;;;;;31.17;14.13;;;3.20;99.90;;;;;;4956174;29;20054;-79
2022/01/19 07:22:34;;;;;;;36.80;15.23;;;3.30;99.90;;;;;;4953274;29;20047;-79
2022/01/19 07:24:59;;;;;;;38.50;15.57;;;3.30;99.90;;;;;;4953550;29;20067;-79
2022/01/19 07:27:26;;;;;;;34.60;15.10;;;3.30;99.90;;;;;;4953518;29;20079;-79
2022/01/19 07:29:51;;;;;;;38.63;13.80;;;3.30;99.90;;;;;;4953629;29;20062;-79
2022/01/19 07:32:17;;;;;;;34.20;14.77;;;3.30;99.90;;;;;;4953447;29;20047;-79
2022/01/19 07:34:43;;;;;;;40.67;16.17;;;3.30;99.90;;;;;;4953792;29;20039;-79
2022/01/19 07:37:08;;;;;;;35.45;16.25;;;3.30;99.90;;;;;;4953263;29;20039;-79
2022/01/19 07:39:34;;;;;;;36.80;17.63;;;3.30;99.90;;;;;;4953102;29;20054;-79
2022/01/19 07:42:00;;;;;;;32.28;14.55;;;3.30;99.90;;;;;;4953424;29;20043;-79
2022/01/19 07:44:25;;;;;;;38.85;14.55;;;3.40;99.90;;;;;;4953251;29;20035;-79
2022/01/19 07:46:51;;;;;;;36.72;14.55;;;3.30;99.90;;;;;;4953055;29;20051;-79
2022/01/19 07:49:18;;;;;;;35.88;14.95;;;3.20;99.90;;;;;;4954233;28;20122;-79
2022/01/19 07:51:43;;;;;;;37.10;15.38;;;3.30;99.90;;;;;;4952487;29;20119;-77
2022/01/19 07:54:09;;;;;;;30.63;15.05;;;3.30;99.90;;;;;;4936454;29;20229;-78
2022/01/19 07:56:34;;;;;;;31.90;14.05;;;3.30;99.90;;;;;;4936270;29;20051;-76
2022/01/19 07:59:00;;;;;;;35.78;15.07;;;3.30;99.90;;;;;;4940444;29;20047;-76
2022/01/19 08:01:30;;;;;;;36.70;13.95;;;3.30;99.90;;;;;;4948915;29;20036;-77
2022/01/19 08:03:56;;;;;;;32.17;14.57;;;3.30;99.90;;;;;;4933041;29;20058;-76
2022/01/19 08:06:22;;;;;;;33.75;14.07;;;3.30;99.90;;;;;;4932578;29;20036;-77
2022/01/19 08:08:47;;;;;;;33.70;14.30;;;3.30;99.90;;;;;;4949279;28;20213;-75
2022/01/19 08:11:13;;;;;;;39.38;16.95;;;3.30;99.90;;;;;;4952591;28;20392;-76
2022/01/19 08:13:38;;;;;;;33.47;14.93;;;3.30;99.90;;;;;;4952362;28;20632;-76
2022/01/19 08:16:04;;;;;;;32.05;14.82;;;3.30;99.90;;;;;;4936181;29;20095;-76
2022/01/19 08:18:30;;;;;;;37.83;16.05;;;3.30;99.90;;;;;;4936252;29;20047;-76
2022/01/19 08:20:55;;;;;;;32.75;16.33;;;3.30;99.90;;;;;;4936247;29;20047;-76
2022/01/19 08:23:21;;;;;;;39.20;16.30;;;3.30;99.90;;;;;;4936407;29;20051;-75
2022/01/19 08:25:46;;;;;;;34.03;14.88;;;3.30;99.90;;;;;;4935805;29;20060;-77
2022/01/19 08:28:13;;;;;;;34.20;15.13;;;3.30;99.90;;;;;;4936163;29;20051;-75
2022/01/19 08:30:38;;;;;;;34.00;14.30;;;3.20;99.90;;;;;;4936219;29;20103;-75
2022/01/19 08:33:04;;;;;;;35.22;15.00;;;3.30;99.90;;;;;;4936210;29;20051;-79
2022/01/19 08:35:30;;;;;;;32.85;14.68;;;3.30;99.90;;;;;;4920896;29;20050;-79
2022/01/19 08:37:55;;;;;;;35.90;16.20;;;3.30;99.90;;;;;;4936499;29;20051;-79
2022/01/19 08:40:28;;;;;;;37.40;16.17;;;3.30;99.90;;;;;;4936826;29;20048;-79
2022/01/19 08:42:54;;;;;;;37.67;16.67;;;3.30;99.90;;;;;;4920878;29;20043;-79
2022/01/19 08:45:20;;;;;;;42.33;16.75;;;3.30;99.90;;;;;;4936354;29;20051;-79
2022/01/19 08:47:46;;;;;;;36.22;15.98;;;3.30;99.90;;;;;;4936581;29;20095;-79
2022/01/19 08:50:14;;;;;;;42.35;17.42;;;3.30;99.90;;;;;;4936427;29;20407;-79
2022/01/19 08:52:40;;;;;;;36.25;15.52;;;3.30;99.90;;;;;;4936158;29;20058;-79
2022/01/19 08:55:06;;;;;;;38.03;17.67;;;3.40;99.90;;;;;;4936031;29;20595;-79
2022/01/19 08:57:32;;;;;;;39.20;17.15;;;3.40;99.90;;;;;;4936370;29;20402;-79
2022/01/19 08:59:57;;;;;;;47.55;18.83;;;3.40;99.90;;;;;;4919999;29;20051;-79
2022/01/19 09:02:23;;;;;;;37.53;17.67;;;3.40;99.90;;;;;;4941662;29;20039;-79
2022/01/19 09:04:49;;;;;;;36.85;17.80;;;3.50;99.90;;;;;;4944205;29;20047;-78
2022/01/19 09:07:15;;;;;;;42.42;19.35;;;3.50;99.90;;;;;;4943101;29;20058;-79
2022/01/19 09:09:41;;;;;;;37.75;17.02;;;3.50;99.90;;;;;;4943549;29;20048;-79
2022/01/19 09:12:07;;;;;;;42.65;19.02;;;3.50;99.90;;;;;;4927414;29;20476;-79
2022/01/19 09:14:33;;;;;;;38.17;17.33;;;3.50;99.90;;;;;;4943425;29;20127;-79
2022/01/19 09:16:58;;;;;;;48.22;18.40;;;3.60;99.90;;;;;;4942405;29;20079;-79
2022/01/19 09:19:24;;;;;;;42.53;16.58;;;3.60;99.90;;;;;;4927046;29;20044;-79
2022/01/19 09:21:50;;;;;;;34.92;16.25;;;3.60;99.90;;;;;;4941852;29;20398;-79
2022/01/19 09:24:17;;;;;;;36.95;16.13;;;3.70;99.90;;;;;;4942695;29;20043;-78
2022/01/19 09:26:43;;;;;;;39.13;16.77;;;3.60;99.90;;;;;;4942755;29;20122;-78
2022/01/19 09:29:09;;;;;;;41.00;19.02;;;3.60;99.90;;;;;;4943019;29;20050;-79
2022/01/19 09:31:36;;;;;;;43.30;18.27;;;3.70;99.90;;;;;;4942884;29;20490;-79
2022/01/19 09:34:08;;;;;;;39.10;18.50;;;3.70;99.90;;;;;;4942686;29;20044;-79
2022/01/19 09:36:44;;;;;;;41.42;17.00;;;3.70;99.90;;;;;;4942368;29;20075;-79
2022/01/19 09:39:11;;;;;;;44.92;18.25;;;3.80;99.90;;;;;;4925344;29;20048;-78
2022/01/19 09:41:37;;;;;;;48.72;20.17;;;3.80;99.90;;;;;;4941361;29;20431;-78
2022/01/19 09:44:03;;;;;;;42.38;18.73;;;3.80;99.90;;;;;;4941140;29;20050;-78
2022/01/19 09:46:29;;;;;;;42.85;18.17;;;3.80;99.90;;;;;;4941134;29;20042;-78
2022/01/19 09:48:56;;;;;;;40.25;17.42;;;3.80;99.90;;;;;;4942483;29;20040;-79
2022/01/19 09:51:22;;;;;;;47.78;18.45;;;3.90;99.90;;;;;;4941123;29;20095;-78
2022/01/19 09:53:48;;;;;;;43.90;18.00;;;3.80;99.90;;;;;;4941821;29;20162;-79
2022/01/19 09:56:18;;;;;;;47.70;19.77;;;3.80;99.90;;;;;;4926722;29;20521;-79
2022/01/19 09:58:44;;;;;;;41.25;19.05;;;3.90;99.90;;;;;;4943132;29;20043;-79
2022/01/19 10:01:10;;;;;;;45.15;18.67;;;3.90;99.90;;;;;;4942353;29;20047;-79
2022/01/19 10:03:36;;;;;;;49.60;20.42;;;3.90;99.90;;;;;;4942677;29;20051;-79
2022/01/19 10:06:11;;;;;;;43.85;19.60;;;3.90;99.90;;;;;;4941847;29;20051;-79
2022/01/19 10:08:44;;;;;;;44.63;19.25;;;3.90;99.90;;;;;;4942048;29;20067;-78
2022/01/19 10:19:37;;;;;;;53.38;23.50;;;4.00;99.90;;;;;;4942097;29;20080;-78
2022/01/19 10:22:16;;;;;;;44.97;19.25;;;4.00;99.90;;;;;;4942320;29;20103;-79
2022/01/19 10:24:52;;;;;;;48.42;20.05;;;4.00;99.90;;;;;;4925131;29;20039;-79
2022/01/19 10:27:37;;;;;;;55.53;20.90;;;3.90;99.90;;;;;;4938525;29;20510;-79
2022/01/19 10:30:03;;;;;;;59.22;23.23;;;4.00;99.90;;;;;;4922886;29;20039;-79
2022/01/19 10:32:30;;;;;;;60.22;24.70;;;4.00;99.90;;;;;;4938776;29;20051;-79
2022/01/19 10:34:56;;;;;;;51.95;23.25;;;4.00;99.90;;;;;;4939394;29;20035;-78
2022/01/19 10:37:28;;;;;;;57.75;23.35;;;4.00;99.90;;;;;;4938855;29;20098;-79
2022/01/19 10:39:57;;;;;;;60.10;23.13;;;4.00;99.90;;;;;;4938453;29;20039;-80
2022/01/19 10:42:30;;;;;;;59.25;23.40;;;4.10;99.90;;;;;;4938468;29;20494;-79
2022/01/19 10:45:00;;;;;;;56.60;24.13;;;4.10;99.90;;;;;;4938412;29;20447;-79
2022/01/19 10:47:45;;;;;;;59.58;23.38;;;4.10;99.90;;;;;;4938531;29;20039;-79
2022/01/19 10:50:21;;;;;;;53.80;22.00;;;4.10;99.90;;;;;;4938557;29;20043;-79
2022/01/19 10:52:47;;;;;;;62.55;23.35;;;4.10;99.90;;;;;;4938480;29;20507;-79
2022/01/19 10:55:19;;;;;;;62.60;23.90;;;4.10;99.90;;;;;;4938612;29;20136;-79
2022/01/19 10:57:45;;;;;;;58.45;23.13;;;4.10;99.90;;;;;;4938675;29;20051;-79
2022/01/19 11:00:15;;;;;;;64.05;25.83;;;4.20;99.90;;;;;;4938499;29;20047;-80
2022/01/19 11:02:42;;;;;;;63.40;23.80;;;4.20;99.90;;;;;;4938292;29;20098;-79
2022/01/19 11:05:08;;;;;;;63.20;24.98;;;4.20;99.90;;;;;;4938119;29;20043;-80
2022/01/19 11:07:34;;;;;;;65.68;26.60;;;4.20;99.90;;;;;;4935118;29;20224;-79
2022/01/19 11:12:48;;;;;;;59.40;24.63;;;4.20;99.90;;;;;;4934040;29;20122;-76
2022/01/19 11:15:19;;;;;;;70.72;28.08;;;4.20;99.90;;;;;;4933230;29;20091;-77
2022/01/19 11:17:46;;;;;;;73.90;28.15;;;4.30;99.90;;;;;;4933516;29;20047;-79
2022/01/19 11:20:14;;;;;;;65.40;25.83;;;4.30;99.90;;;;;;4933118;29;20077;-76
2022/01/19 11:23:04;;;;;;;72.13;27.10;;;4.30;99.90;;;;;;4933518;29;20055;-77
2022/01/19 11:26:05;;;;;;;74.47;27.58;;;4.30;99.90;;;;;;4933199;29;20055;-77
2022/01/19 11:28:46;;;;;;;75.03;28.55;;;4.30;99.90;;;;;;4933389;29;20126;-78
2022/01/19 11:31:11;;;;;;;83.07;30.17;;;4.30;99.90;;;;;;4933301;29;20095;-76
2022/01/19 11:33:43;;;;;;;69.20;26.10;;;4.30;99.90;;;;;;4933240;29;20051;-78
2022/01/19 11:36:29;;;;;;;75.97;28.92;;;4.30;99.90;;;;;;4932985;29;20044;-77
2022/01/19 11:39:17;;;;;;;72.53;27.17;;;4.30;99.90;;;;;;4933143;29;20067;-78
2022/01/19 11:41:57;;;;;;;75.65;28.50;;;4.30;99.90;;;;;;4933447;29;20047;-78
2022/01/19 11:44:32;;;;;;;72.88;28.15;;;4.30;99.90;;;;;;4934561;29;20052;-76
2022/01/19 11:47:04;;;;;;;81.03;30.50;;;4.30;99.90;;;;;;4936646;29;20055;-77
2022/01/19 11:50:01;;;;;;;69.60;28.38;;;4.40;99.90;;;;;;4920832;29;20051;-77
2022/01/19 11:52:49;;;;;;;77.93;28.55;;;4.40;99.90;;;;;;4932444;29;20063;-76
2022/01/19 11:55:19;;;;;;;84.90;28.95;;;4.30;99.90;;;;;;4936594;29;20055;-76
2022/01/19 11:57:48;;;;;;;74.68;27.77;;;4.30;99.90;;;;;;4936857;29;20044;-75
2022/01/19 12:00:23;;;;;;;80.53;28.90;;;4.30;99.90;;;;;;4936720;29;20099;-75
2022/01/19 12:02:55;;;;;;;70.05;27.35;;;4.40;99.90;;;;;;4936615;29;20056;-75
2022/01/19 12:05:30;;;;;;;72.47;27.58;;;4.40;99.90;;;;;;4936123;29;20059;-75
2022/01/19 12:08:01;;;;;;;73.35;27.20;;;4.40;99.90;;;;;;4937133;29;20102;-75
2022/01/19 12:10:31;;;;;;;71.13;29.50;;;4.50;99.90;;;;;;4936759;29;20122;-75
2022/01/19 12:16:19;;;;;;;76.10;28.85;;;4.50;99.90;;;;;;4936400;29;20083;-75
2022/01/19 12:18:46;;;;;;;72.43;28.70;;;4.50;99.90;;;;;;4936129;29;20384;-75
2022/01/19 12:21:31;;;;;;;72.20;26.73;;;4.50;99.90;;;;;;4936445;29;20114;-78
2022/01/19 12:24:12;;;;;;;68.55;26.55;;;4.50;99.90;;;;;;4936199;29;20099;-77
2022/01/19 12:26:57;;;;;;;69.00;26.25;;;4.50;99.90;;;;;;4936104;29;20055;-76
2022/01/19 12:29:36;;;;;;;73.68;28.38;;;4.50;99.90;;;;;;4936079;29;20059;-78
2022/01/19 12:32:25;;;;;;;71.90;28.52;;;4.50;99.90;;;;;;4936116;29;20127;-76
2022/01/19 12:34:52;;;;;;;71.20;27.63;;;4.50;99.90;;;;;;4936019;29;20051;-77
2022/01/19 12:37:26;;;;;;;70.15;27.10;;;4.50;99.90;;;;;;4935750;29;20051;-77
2022/01/19 12:39:53;;;;;;;73.13;29.15;;;4.50;99.90;;;;;;4935802;29;20067;-76
2022/01/19 12:42:25;;;;;;;63.65;24.90;;;4.60;99.90;;;;;;4920111;29;20051;-77
2022/01/19 12:44:57;;;;;;;68.90;27.60;;;4.60;99.90;;;;;;4937049;29;20051;-76
2022/01/19 12:47:28;;;;;;;;;;;4.50;99.90;;;;;;4936407;29;20448;-76
2022/01/19 12:50:03;;;;;;;71.45;28.73;;;4.60;99.90;;;;;;4951590;29;19918;-76
2022/01/19 12:52:32;;;;;;;69.88;27.40;;;4.50;99.90;;;;;;4936036;29;20521;-77
2022/01/19 12:55:13;;;;;;;71.00;27.08;;;4.60;99.90;;;;;;4936646;29;20123;-79
2022/01/19 12:57:39;;;;;;;75.15;28.45;;;4.60;99.90;;;;;;4935727;29;20047;-77
2022/01/19 13:00:08;;;;;;;72.80;26.48;;;4.60;99.90;;;;;;4935528;29;20118;-77
2022/01/19 13:02:34;;;;;;;69.15;27.25;;;4.50;99.90;;;;;;4935554;29;20050;-77
2022/01/19 13:05:08;;;;;;;68.32;27.17;;;4.50;99.90;;;;;;4935441;29;20044;-79
2022/01/19 13:07:37;;;;;;;65.80;27.33;;;4.60;99.90;;;;;;4935477;29;20055;-76
2022/01/19 13:10:27;;;;;;;68.18;24.42;;;4.60;99.90;;;;;;4935421;29;20044;-76
2022/01/19 13:15:45;;;;;;;69.43;26.20;;;4.60;99.90;;;;;;4935403;29;20510;-76
2022/01/19 13:18:14;;;;;;;60.58;27.13;;;4.70;99.90;;;;;;4931888;29;20059;-76
2022/01/19 13:20:51;;;;;;;71.18;27.88;;;4.70;99.90;;;;;;4935241;29;20067;-78
2022/01/19 13:23:16;;;;;;;63.95;24.33;;;4.70;99.90;;;;;;4935130;29;20503;-76
2022/01/19 13:25:42;;;;;;;77.18;27.67;;;4.80;99.90;;;;;;4934848;29;20055;-76
2022/01/19 13:28:08;;;;;;;61.85;26.23;;;4.80;99.90;;;;;;4935061;29;20471;-77
2022/01/19 13:30:34;;;;;;;71.25;25.42;;;4.80;99.90;;;;;;4935310;29;20300;-76
2022/01/19 13:33:12;;;;;;;57.63;22.58;;;4.90;99.90;;;;;;4935025;29;20060;-78
2022/01/19 13:35:38;;;;;;;63.08;25.38;;;5.00;99.90;;;;;;4934713;29;20048;-76
2022/01/19 13:38:10;;;;;;;58.53;23.58;;;5.00;99.90;;;;;;4934918;29;20127;-77
2022/01/19 13:40:36;;;;;;;57.08;23.67;;;5.00;99.90;;;;;;4934828;29;20087;-76
2022/01/19 13:43:04;;;;;;;57.97;24.02;;;5.10;99.90;;;;;;4935234;29;20048;-77
2022/01/19 13:50:57;;;;;;;52.67;23.25;;;5.20;99.90;;;;;;4934915;29;20044;-77
2022/01/19 13:53:32;;;;;;;59.97;22.77;;;5.20;99.90;;;;;;4935908;29;20043;-75
2022/01/19 13:55:59;;;;;;;53.33;21.42;;;5.20;99.90;;;;;;4935231;29;20491;-75
2022/01/19 13:59:02;;;;;;;53.35;22.55;;;5.30;99.90;;;;;;4936153;29;20494;-75
2022/01/19 14:01:32;;;;;;;;;;;5.30;99.90;;;;;;4926212;29;20522;-76
2022/01/19 14:04:04;;;;;;;47.28;20.80;;;5.30;99.90;;;;;;4952500;29;19934;-75
2022/01/19 14:06:32;;;;;;;49.28;20.75;;;5.30;99.90;;;;;;4935212;29;20047;-75
2022/01/19 14:09:05;;;;;;;48.88;20.25;;;5.30;99.90;;;;;;4936088;29;20043;-75
2022/01/19 14:11:32;;;;;;;50.97;22.40;;;5.30;99.90;;;;;;4936203;29;20259;-75
2022/01/19 14:14:10;;;;;;;50.85;21.95;;;5.30;99.90;;;;;;4935789;29;20056;-76
2022/01/19 14:16:42;;;;;;;52.53;21.90;;;5.30;99.90;;;;;;4935874;29;20049;-76
2022/01/19 14:19:19;;;;;;;54.38;19.23;;;5.40;99.90;;;;;;4935800;29;20055;-77
2022/01/19 14:22:03;;;;;;;48.80;19.80;;;5.30;99.90;;;;;;4937295;29;20043;-75
2022/01/19 14:24:44;;;;;;;47.25;20.45;;;5.30;99.90;;;;;;4935729;29;20052;-77
2022/01/19 14:27:24;;;;;;;41.85;17.92;;;5.30;99.90;;;;;;4935332;29;20044;-77
2022/01/19 14:30:13;;;;;;;42.05;17.80;;;5.30;99.90;;;;;;4935850;29;20062;-76